Time;durP1;ratioP1;P1;durP2;ratioP2;P2;SDS_P1;SDS_P2;PMS_P1;PMS_P2;Temp;Humidity;BMP_temperature;BMP_pressure;BME280_temperature;BME280_humidity;BME280_pressure;Samples;Min_cycle;Max_cycle;Signal;HPM_P1;HPM_P2
2023/07/28 00:01:58;;;;;;;6.50;3.13;;;;;;;;;;748992;184;918438;-70
2023/07/28 00:04:24;;;;;;;7.30;3.10;;;;;;;;;;750356;184;919604;-57
2023/07/28 00:06:50;;;;;;;9.35;2.40;;;;;;;;;;749755;184;918374;-57
2023/07/28 00:09:16;;;;;;;5.13;2.93;;;;;;;;;;752179;184;918677;-63
2023/07/28 00:11:42;;;;;;;7.10;3.03;;;;;;;;;;747853;184;918961;-57
2023/07/28 00:14:08;;;;;;;5.00;2.63;;;;;;;;;;758101;183;921149;-63
2023/07/28 00:16:33;;;;;;;6.20;3.30;;;;;;;;;;758231;184;914776;-57
2023/07/28 00:18:59;;;;;;;6.80;3.47;;;;;;;;;;756383;183;918552;-62
2023/07/28 00:21:25;;;;;;;5.57;2.70;;;;;;;;;;751892;183;1730107;-61
2023/07/28 00:23:51;;;;;;;5.50;2.90;;;;;;;;;;760511;183;919436;-63
2023/07/28 00:26:17;;;;;;;6.43;2.83;;;;;;;;;;753852;184;915962;-57
2023/07/28 00:28:43;;;;;;;4.03;2.80;;;;;;;;;;753655;183;920420;-62
2023/07/28 00:31:09;;;;;;;4.70;2.53;;;;;;;;;;758387;183;903653;-61
2023/07/28 00:33:34;;;;;;;6.67;2.80;;;;;;;;;;747537;187;916086;-63
2023/07/28 00:36:00;;;;;;;4.47;2.80;;;;;;;;;;752178;184;914599;-57
2023/07/28 00:38:26;;;;;;;4.53;3.10;;;;;;;;;;752030;184;918835;-57
2023/07/28 00:40:52;;;;;;;5.60;2.60;;;;;;;;;;762876;183;817849;-57
2023/07/28 00:43:18;;;;;;;4.73;2.53;;;;;;;;;;752650;184;918127;-62
2023/07/28 00:45:44;;;;;;;4.97;3.20;;;;;;;;;;758285;180;915713;-63
2023/07/28 00:48:10;;;;;;;4.80;3.00;;;;;;;;;;755422;184;926852;-57
2023/07/28 00:50:35;;;;;;;7.60;3.20;;;;;;;;;;757498;183;817602;-63
2023/07/28 00:53:01;;;;;;;4.93;2.47;;;;;;;;;;753105;184;919369;-61
2023/07/28 00:55:27;;;;;;;5.73;3.00;;;;;;;;;;761483;184;914154;-62
2023/07/28 00:57:53;;;;;;;4.57;3.10;;;;;;;;;;753333;184;918115;-63
2023/07/28 01:00:19;;;;;;;5.40;2.57;;;;;;;;;;757438;181;919473;-62
2023/07/28 01:02:45;;;;;;;19.53;3.77;;;;;;;;;;757227;183;920973;-62
2023/07/28 01:05:11;;;;;;;5.13;3.23;;;;;;;;;;760527;183;921747;-61
2023/07/28 01:07:37;;;;;;;4.27;2.70;;;;;;;;;;760235;183;923228;-57
2023/07/28 01:10:03;;;;;;;4.87;2.93;;;;;;;;;;756468;184;918070;-57
2023/07/28 01:12:29;;;;;;;5.33;3.40;;;;;;;;;;761843;184;816778;-62
2023/07/28 01:14:55;;;;;;;5.10;3.30;;;;;;;;;;753707;183;914206;-57
2023/07/28 01:17:23;;;;;;;4.97;3.27;;;;;;;;;;755435;183;898564;-57
2023/07/28 01:19:47;;;;;;;3.87;2.97;;;;;;;;;;761497;183;918782;-57
2023/07/28 01:22:12;;;;;;;4.63;3.10;;;;;;;;;;757073;183;920264;-57
2023/07/28 01:24:38;;;;;;;5.00;3.50;;;;;;;;;;752996;183;918591;-62
2023/07/28 01:27:04;;;;;;;7.00;3.40;;;;;;;;;;754455;183;919265;-62
2023/07/28 01:29:30;;;;;;;4.67;3.30;;;;;;;;;;754117;183;918837;-62
2023/07/28 01:31:56;;;;;;;7.63;3.10;;;;;;;;;;753859;184;918525;-58
2023/07/28 01:34:22;;;;;;;5.43;3.40;;;;;;;;;;756170;184;918968;-62
2023/07/28 01:36:47;;;;;;;5.90;3.10;;;;;;;;;;756966;184;917933;-64
2023/07/28 01:39:13;;;;;;;4.70;2.90;;;;;;;;;;751290;183;918696;-57
2023/07/28 01:41:43;;;;;;;6.47;3.30;;;;;;;;;;755232;183;920320;-58
2023/07/28 01:44:05;;;;;;;8.67;3.23;;;;;;;;;;757731;184;917670;-62
2023/07/28 01:46:31;;;;;;;6.40;3.17;;;;;;;;;;756732;184;918372;-63
2023/07/28 01:48:57;;;;;;;4.67;3.30;;;;;;;;;;755608;183;918800;-61
2023/07/28 01:51:22;;;;;;;5.20;3.63;;;;;;;;;;754465;183;919272;-58
2023/07/28 01:53:48;;;;;;;4.47;2.97;;;;;;;;;;753678;184;917764;-57
2023/07/28 01:56:14;;;;;;;5.90;3.37;;;;;;;;;;750557;183;917791;-63
2023/07/28 01:58:40;;;;;;;4.37;3.10;;;;;;;;;;758168;183;816260;-62
2023/07/28 02:01:06;;;;;;;8.03;3.07;;;;;;;;;;760904;183;920087;-62
2023/07/28 02:03:32;;;;;;;3.83;2.83;;;;;;;;;;756143;184;916920;-63
2023/07/28 02:05:57;;;;;;;3.85;2.72;;;;;;;;;;757363;183;917412;-57
2023/07/28 02:08:23;;;;;;;7.57;3.43;;;;;;;;;;761834;184;918550;-58
2023/07/28 02:10:49;;;;;;;6.10;3.33;;;;;;;;;;756013;182;916933;-62
2023/07/28 02:13:15;;;;;;;7.33;3.13;;;;;;;;;;758909;183;919286;-63
2023/07/28 02:15:41;;;;;;;5.00;2.83;;;;;;;;;;761501;182;918303;-63
2023/07/28 02:18:07;;;;;;;5.20;3.03;;;;;;;;;;754174;182;916080;-62
2023/07/28 02:20:34;;;;;;;7.77;3.63;;;;;;;;;;754963;183;915050;-62
2023/07/28 02:22:58;;;;;;;7.23;3.40;;;;;;;;;;749911;183;927699;-57
2023/07/28 02:25:24;;;;;;;5.40;3.15;;;;;;;;;;760444;182;919374;-63
2023/07/28 02:27:51;;;;;;;5.47;3.20;;;;;;;;;;754018;185;920060;-57
2023/07/28 02:30:16;;;;;;;4.00;2.97;;;;;;;;;;753952;183;919458;-62
2023/07/28 02:32:42;;;;;;;9.82;4.87;;;;;;;;;;753259;184;914865;-62
2023/07/28 02:35:08;;;;;;;5.70;3.57;;;;;;;;;;751734;183;918391;-57
2023/07/28 02:37:34;;;;;;;5.60;3.10;;;;;;;;;;757184;183;918674;-62
2023/07/28 02:40:00;;;;;;;6.73;3.60;;;;;;;;;;762118;182;920350;-57
2023/07/28 02:42:26;;;;;;;4.50;3.53;;;;;;;;;;750058;182;919432;-64
2023/07/28 02:44:52;;;;;;;7.27;3.63;;;;;;;;;;757035;183;921468;-63
2023/07/28 02:47:17;;;;;;;5.60;3.27;;;;;;;;;;753217;183;919790;-64
2023/07/28 02:49:43;;;;;;;7.27;3.70;;;;;;;;;;760643;183;919581;-57
2023/07/28 02:52:09;;;;;;;6.97;4.60;;;;;;;;;;756028;183;914094;-57
2023/07/28 02:54:35;;;;;;;4.32;3.08;;;;;;;;;;752302;184;915668;-58
2023/07/28 02:57:01;;;;;;;8.70;3.63;;;;;;;;;;756416;184;918751;-58
2023/07/28 02:59:27;;;;;;;5.20;3.50;;;;;;;;;;751850;184;919082;-64
2023/07/28 03:01:52;;;;;;;5.43;3.42;;;;;;;;;;755314;184;918465;-65
2023/07/28 03:04:20;;;;;;;6.10;3.30;;;;;;;;;;757241;184;918389;-64
2023/07/28 03:06:44;;;;;;;6.35;3.47;;;;;;;;;;753155;183;918885;-58
2023/07/28 03:09:10;;;;;;;6.80;3.63;;;;;;;;;;757203;183;882365;-65
2023/07/28 03:11:36;;;;;;;7.43;4.00;;;;;;;;;;750834;184;925217;-64
2023/07/28 03:14:02;;;;;;;6.90;4.00;;;;;;;;;;756395;184;919280;-59
2023/07/28 03:16:27;;;;;;;4.07;3.10;;;;;;;;;;755127;184;918210;-66
2023/07/28 03:18:53;;;;;;;5.97;3.50;;;;;;;;;;754014;184;915676;-64
2023/07/28 03:21:19;;;;;;;7.10;3.83;;;;;;;;;;758663;184;917569;-65
2023/07/28 03:23:45;;;;;;;8.10;4.10;;;;;;;;;;755864;182;918985;-59
2023/07/28 03:26:11;;;;;;;6.67;3.30;;;;;;;;;;756487;182;921153;-66
2023/07/28 03:28:37;;;;;;;5.40;3.70;;;;;;;;;;763013;182;854729;-60
2023/07/28 03:31:02;;;;;;;5.57;4.10;;;;;;;;;;752859;183;920096;-61
2023/07/28 03:33:28;;;;;;;4.87;3.03;;;;;;;;;;757644;184;921563;-61
2023/07/28 03:35:54;;;;;;;6.40;3.97;;;;;;;;;;759535;183;919886;-67
2023/07/28 03:38:20;;;;;;;5.23;3.50;;;;;;;;;;736517;183;1020733;-67
2023/07/28 03:40:46;;;;;;;5.80;3.87;;;;;;;;;;756784;183;919529;-61
2023/07/28 03:43:12;;;;;;;5.30;3.93;;;;;;;;;;755008;184;919628;-66
2023/07/28 03:45:38;;;;;;;5.87;3.43;;;;;;;;;;755340;183;918409;-60
2023/07/28 03:48:03;;;;;;;6.07;3.47;;;;;;;;;;755437;183;918637;-60
2023/07/28 03:50:29;;;;;;;5.30;3.97;;;;;;;;;;757311;183;919554;-60
2023/07/28 03:52:55;;;;;;;5.85;3.47;;;;;;;;;;761560;184;908203;-66
2023/07/28 03:55:21;;;;;;;5.67;3.13;;;;;;;;;;753555;184;921909;-60
2023/07/28 03:57:47;;;;;;;5.83;3.57;;;;;;;;;;756334;183;919414;-66
2023/07/28 04:00:13;;;;;;;5.33;3.23;;;;;;;;;;760572;184;909994;-66
2023/07/28 04:02:39;;;;;;;5.57;3.60;;;;;;;;;;760085;183;871581;-66
2023/07/28 04:05:05;;;;;;;5.13;3.33;;;;;;;;;;754997;184;916042;-66
2023/07/28 04:07:30;;;;;;;6.00;3.30;;;;;;;;;;752483;183;816990;-66
2023/07/28 04:09:56;;;;;;;5.77;3.77;;;;;;;;;;744392;186;919664;-67
2023/07/28 04:12:22;;;;;;;5.10;3.60;;;;;;;;;;752884;184;927721;-60
2023/07/28 04:14:48;;;;;;;4.77;2.87;;;;;;;;;;753715;184;916242;-61
2023/07/28 04:17:14;;;;;;;4.70;3.13;;;;;;;;;;761031;184;912560;-60
2023/07/28 04:19:40;;;;;;;3.67;2.58;;;;;;;;;;757542;183;880994;-60
2023/07/28 04:22:06;;;;;;;4.70;3.13;;;;;;;;;;756974;183;917592;-66
2023/07/28 04:24:31;;;;;;;4.90;3.20;;;;;;;;;;759242;184;815950;-66
2023/07/28 04:26:57;;;;;;;6.00;3.10;;;;;;;;;;753450;183;918491;-61
2023/07/28 04:29:23;;;;;;;5.87;3.23;;;;;;;;;;756146;183;923341;-63
2023/07/28 04:31:49;;;;;;;5.65;3.90;;;;;;;;;;759600;183;918446;-61
2023/07/28 04:34:15;;;;;;;5.07;3.77;;;;;;;;;;758832;182;921520;-61
2023/07/28 04:36:41;;;;;;;5.20;2.93;;;;;;;;;;759622;183;918791;-66
2023/07/28 04:39:06;;;;;;;9.57;3.70;;;;;;;;;;756245;183;918740;-66
2023/07/28 04:41:32;;;;;;;7.10;3.50;;;;;;;;;;762957;182;1016947;-67
2023/07/28 04:43:58;;;;;;;4.00;2.90;;;;;;;;;;760095;183;912578;-63
2023/07/28 04:46:24;;;;;;;5.10;3.43;;;;;;;;;;753618;183;920443;-68
2023/07/28 04:48:50;;;;;;;5.07;3.50;;;;;;;;;;759996;184;776324;-67
2023/07/28 04:51:16;;;;;;;4.55;3.20;;;;;;;;;;756476;184;911207;-68
2023/07/28 04:53:41;;;;;;;8.57;3.70;;;;;;;;;;750919;184;919137;-68
2023/07/28 04:56:08;;;;;;;5.30;3.40;;;;;;;;;;762954;183;919510;-61
2023/07/28 04:58:33;;;;;;;8.43;3.57;;;;;;;;;;755495;184;917035;-61
2023/07/28 05:00:59;;;;;;;4.70;3.13;;;;;;;;;;756983;183;911648;-60
2023/07/28 05:03:25;;;;;;;5.20;3.33;;;;;;;;;;756176;183;919573;-67
2023/07/28 05:05:51;;;;;;;5.53;3.03;;;;;;;;;;743151;187;950051;-68
2023/07/28 05:08:17;;;;;;;5.20;3.47;;;;;;;;;;755955;183;927264;-61
2023/07/28 05:10:43;;;;;;;5.20;3.40;;;;;;;;;;755391;183;923141;-61
2023/07/28 05:13:08;;;;;;;5.50;3.43;;;;;;;;;;758746;184;918919;-61
2023/07/28 05:15:34;;;;;;;7.40;3.60;;;;;;;;;;752379;183;919206;-69
2023/07/28 05:18:00;;;;;;;7.93;3.53;;;;;;;;;;753365;183;919225;-68
2023/07/28 05:20:26;;;;;;;4.87;2.90;;;;;;;;;;758867;184;915350;-67
2023/07/28 05:22:52;;;;;;;6.30;3.83;;;;;;;;;;757659;183;917504;-68
2023/07/28 05:25:18;;;;;;;6.83;4.17;;;;;;;;;;759635;183;817005;-60
2023/07/28 05:27:44;;;;;;;4.72;3.10;;;;;;;;;;759781;183;873087;-61
2023/07/28 05:30:10;;;;;;;8.10;3.33;;;;;;;;;;754364;184;712223;-60
2023/07/28 05:32:36;;;;;;;5.67;3.50;;;;;;;;;;745927;183;921252;-67
2023/07/28 05:35:02;;;;;;;5.03;3.17;;;;;;;;;;755416;184;815003;-66
2023/07/28 05:37:27;;;;;;;5.07;3.97;;;;;;;;;;760667;184;915321;-67
2023/07/28 05:39:53;;;;;;;5.20;3.27;;;;;;;;;;754444;183;813198;-61
2023/07/28 05:42:19;;;;;;;6.20;4.53;;;;;;;;;;751594;184;814654;-60
2023/07/28 05:44:45;;;;;;;5.60;3.27;;;;;;;;;;757665;184;904401;-67
2023/07/28 05:47:11;;;;;;;9.30;3.70;;;;;;;;;;755615;184;821044;-60
2023/07/28 05:49:37;;;;;;;7.00;3.53;;;;;;;;;;756876;184;918993;-60
2023/07/28 05:52:03;;;;;;;4.93;3.70;;;;;;;;;;761401;183;919598;-66
2023/07/28 05:54:28;;;;;;;7.17;3.60;;;;;;;;;;753404;183;919443;-60
2023/07/28 05:56:54;;;;;;;4.90;3.17;;;;;;;;;;754642;183;914856;-60
2023/07/28 05:59:21;;;;;;;8.30;3.77;;;;;;;;;;753904;183;915451;-61
2023/07/28 06:01:46;;;;;;;6.90;4.23;;;;;;;;;;758107;182;916056;-60
2023/07/28 06:04:12;;;;;;;6.63;3.87;;;;;;;;;;757247;183;918778;-67
2023/07/28 06:06:38;;;;;;;8.43;4.00;;;;;;;;;;757583;183;919367;-67
2023/07/28 06:09:03;;;;;;;5.10;3.50;;;;;;;;;;762262;182;918598;-65
2023/07/28 06:11:29;;;;;;;4.63;3.50;;;;;;;;;;759582;183;819592;-65
2023/07/28 06:13:55;;;;;;;4.77;3.50;;;;;;;;;;754022;184;918603;-66
2023/07/28 06:16:21;;;;;;;9.60;4.13;;;;;;;;;;757855;183;919097;-65
2023/07/28 06:18:47;;;;;;;6.17;3.30;;;;;;;;;;760383;183;631623;-67
2023/07/28 06:21:13;;;;;;;11.70;3.80;;;;;;;;;;759579;184;629087;-67
2023/07/28 06:23:39;;;;;;;6.47;3.67;;;;;;;;;;754469;184;623346;-59
2023/07/28 06:26:04;;;;;;;9.10;4.17;;;;;;;;;;757768;184;616987;-67
2023/07/28 06:28:30;;;;;;;6.30;4.20;;;;;;;;;;754816;184;918335;-66
2023/07/28 06:30:56;;;;;;;10.13;4.60;;;;;;;;;;755406;184;635728;-66
2023/07/28 06:33:22;;;;;;;6.67;4.00;;;;;;;;;;761273;184;614861;-67
2023/07/28 06:35:48;;;;;;;7.70;4.33;;;;;;;;;;758067;184;631961;-60
2023/07/28 06:38:14;;;;;;;5.60;3.97;;;;;;;;;;755592;184;624260;-67
2023/07/28 06:40:39;;;;;;;5.47;3.70;;;;;;;;;;759402;183;918046;-60
2023/07/28 06:43:07;;;;;;;4.93;3.73;;;;;;;;;;756505;183;917732;-68
2023/07/28 06:45:31;;;;;;;6.00;4.23;;;;;;;;;;755492;183;920457;-68
2023/07/28 06:47:57;;;;;;;10.40;5.07;;;;;;;;;;760251;183;912885;-68
2023/07/28 06:50:23;;;;;;;6.10;4.43;;;;;;;;;;759239;183;916525;-62
2023/07/28 06:52:49;;;;;;;9.40;4.80;;;;;;;;;;753129;183;918365;-67
2023/07/28 06:55:14;;;;;;;6.23;4.27;;;;;;;;;;756858;184;917153;-60
2023/07/28 06:57:40;;;;;;;5.87;3.90;;;;;;;;;;753094;183;918987;-65
2023/07/28 07:00:09;;;;;;;7.83;3.60;;;;;;;;;;758622;182;963150;-65
2023/07/28 07:02:32;;;;;;;6.80;4.37;;;;;;;;;;759821;182;918572;-65
2023/07/28 07:04:58;;;;;;;7.53;4.97;;;;;;;;;;758024;184;918735;-61
2023/07/28 07:07:25;;;;;;;6.77;4.60;;;;;;;;;;757243;183;819570;-59
2023/07/28 07:09:50;;;;;;;6.43;4.20;;;;;;;;;;757391;183;915057;-66
2023/07/28 07:12:16;;;;;;;6.47;4.07;;;;;;;;;;762610;183;816449;-60
2023/07/28 07:14:42;;;;;;;6.57;4.83;;;;;;;;;;757351;183;918919;-60
2023/07/28 07:17:07;;;;;;;5.30;3.40;;;;;;;;;;760670;183;918364;-61
2023/07/28 07:19:33;;;;;;;7.40;4.73;;;;;;;;;;751424;185;868533;-65
2023/07/28 07:21:59;;;;;;;5.65;3.42;;;;;;;;;;755413;184;918329;-65
2023/07/28 07:24:25;;;;;;;5.90;4.13;;;;;;;;;;755654;183;813343;-59
2023/07/28 07:26:51;;;;;;;5.17;3.80;;;;;;;;;;756624;183;855742;-59
2023/07/28 07:29:17;;;;;;;5.50;3.60;;;;;;;;;;761468;183;919369;-60
2023/07/28 07:31:43;;;;;;;5.00;3.70;;;;;;;;;;757061;183;633743;-60
2023/07/28 07:34:09;;;;;;;6.07;4.13;;;;;;;;;;761970;183;620953;-67
2023/07/28 07:36:34;;;;;;;6.10;4.03;;;;;;;;;;759946;184;918966;-59
2023/07/28 07:39:00;;;;;;;6.30;4.13;;;;;;;;;;761650;183;918935;-66
2023/07/28 07:41:26;;;;;;;9.07;5.27;;;;;;;;;;758967;183;915340;-59
2023/07/28 07:43:53;;;;;;;5.90;3.80;;;;;;;;;;760764;183;816784;-60
2023/07/28 07:46:19;;;;;;;5.43;3.73;;;;;;;;;;759989;184;619513;-61
2023/07/28 07:48:45;;;;;;;5.30;4.20;;;;;;;;;;752144;184;932825;-62
2023/07/28 07:51:11;;;;;;;5.50;4.27;;;;;;;;;;753608;184;919952;-67
2023/07/28 07:53:37;;;;;;;8.83;4.43;;;;;;;;;;764572;183;818551;-67
2023/07/28 07:56:03;;;;;;;7.57;4.30;;;;;;;;;;759343;183;819068;-69
2023/07/28 07:58:29;;;;;;;6.50;3.90;;;;;;;;;;756826;184;919306;-68
2023/07/28 08:00:55;;;;;;;5.83;3.90;;;;;;;;;;757138;184;909817;-61
2023/07/28 08:03:21;;;;;;;6.57;4.00;;;;;;;;;;753216;183;918965;-67
2023/07/28 08:05:47;;;;;;;5.20;3.83;;;;;;;;;;755563;183;919700;-68
2023/07/28 08:08:15;;;;;;;5.07;3.27;;;;;;;;;;751211;184;919367;-61
2023/07/28 08:10:38;;;;;;;7.47;4.43;;;;;;;;;;749580;184;815605;-67
2023/07/28 08:13:04;;;;;;;7.37;4.40;;;;;;;;;;747351;184;925834;-60
2023/07/28 08:15:30;;;;;;;7.70;4.40;;;;;;;;;;759271;183;916182;-61
2023/07/28 08:17:56;;;;;;;5.80;3.77;;;;;;;;;;764357;183;881952;-67
2023/07/28 08:20:22;;;;;;;5.07;3.80;;;;;;;;;;754294;183;919005;-67
2023/07/28 08:22:47;;;;;;;5.12;3.75;;;;;;;;;;751890;184;919075;-60
2023/07/28 08:25:13;;;;;;;5.67;4.17;;;;;;;;;;760747;182;900102;-60
2023/07/28 08:27:39;;;;;;;7.23;4.37;;;;;;;;;;751401;184;911637;-66
2023/07/28 08:30:05;;;;;;;6.77;4.37;;;;;;;;;;754048;183;920943;-66
2023/07/28 08:32:32;;;;;;;6.27;4.50;;;;;;;;;;758339;183;817960;-67
2023/07/28 08:34:57;;;;;;;9.73;3.97;;;;;;;;;;758066;182;818357;-60
2023/07/28 08:37:23;;;;;;;5.23;3.97;;;;;;;;;;759209;183;920355;-67
2023/07/28 08:39:49;;;;;;;5.43;3.80;;;;;;;;;;757006;183;819279;-66
2023/07/28 08:42:15;;;;;;;5.97;4.13;;;;;;;;;;760943;183;918385;-60
2023/07/28 08:44:41;;;;;;;6.80;3.87;;;;;;;;;;752486;184;915657;-60
2023/07/28 08:47:06;;;;;;;5.33;3.83;;;;;;;;;;756916;184;816796;-60
2023/07/28 08:49:35;;;;;;;5.60;3.97;;;;;;;;;;761452;183;896137;-67
2023/07/28 08:51:59;;;;;;;8.93;3.50;;;;;;;;;;753798;183;918503;-59
2023/07/28 08:54:25;;;;;;;6.73;3.90;;;;;;;;;;751723;184;917862;-62
2023/07/28 08:56:50;;;;;;;4.37;3.20;;;;;;;;;;760180;184;918729;-69
2023/07/28 08:59:20;;;;;;;5.40;3.80;;;;;;;;;;755124;183;816577;-69
2023/07/28 09:01:46;;;;;;;6.90;4.47;;;;;;;;;;756180;184;914859;-69
2023/07/28 09:04:12;;;;;;;9.20;4.40;;;;;;;;;;755747;183;816150;-68
2023/07/28 09:06:38;;;;;;;7.30;4.30;;;;;;;;;;759501;183;817828;-61
2023/07/28 09:09:06;;;;;;;5.60;3.67;;;;;;;;;;753688;183;918791;-61
2023/07/28 09:11:32;;;;;;;5.70;4.00;;;;;;;;;;754825;184;925465;-69
2023/07/28 09:13:58;;;;;;;5.77;3.33;;;;;;;;;;760864;183;911084;-68
2023/07/28 09:16:24;;;;;;;4.90;3.53;;;;;;;;;;752090;183;920426;-67
2023/07/28 09:18:50;;;;;;;7.43;4.00;;;;;;;;;;750668;183;910342;-61
2023/07/28 09:21:17;;;;;;;8.23;3.97;;;;;;;;;;755128;184;945888;-70
2023/07/28 09:23:42;;;;;;;5.60;3.90;;;;;;;;;;761933;182;916950;-69
2023/07/28 09:26:09;;;;;;;7.03;4.00;;;;;;;;;;754329;184;919152;-69
2023/07/28 09:28:39;;;;;;;10.40;4.27;;;;;;;;;;758472;182;918496;-60
2023/07/28 09:31:05;;;;;;;5.70;4.07;;;;;;;;;;760955;183;919099;-67
2023/07/28 09:33:30;;;;;;;6.93;5.07;;;;;;;;;;749966;184;913258;-61
2023/07/28 09:35:57;;;;;;;8.30;4.87;;;;;;;;;;752280;183;917086;-68
2023/07/28 09:38:22;;;;;;;6.53;4.00;;;;;;;;;;749182;183;927273;-61
2023/07/28 09:40:48;;;;;;;6.80;4.50;;;;;;;;;;760217;183;917691;-61
2023/07/28 09:43:14;;;;;;;7.13;3.43;;;;;;;;;;750216;184;918132;-68
2023/07/28 09:45:40;;;;;;;6.07;4.00;;;;;;;;;;752060;183;915922;-68
2023/07/28 09:48:07;;;;;;;5.60;4.00;;;;;;;;;;759723;183;921868;-60
2023/07/28 09:50:31;;;;;;;10.20;4.10;;;;;;;;;;759088;183;826070;-68
2023/07/28 09:52:57;;;;;;;9.37;3.97;;;;;;;;;;754012;183;861814;-68
2023/07/28 09:55:23;;;;;;;5.13;4.63;;;;;;;;;;759607;183;918162;-68
2023/07/28 09:57:52;;;;;;;7.03;4.67;;;;;;;;;;757761;183;913005;-61
2023/07/28 10:00:18;;;;;;;5.57;4.00;;;;;;;;;;754561;183;918857;-66
2023/07/28 10:02:44;;;;;;;6.18;4.55;;;;;;;;;;753140;183;919099;-66
2023/07/28 10:05:10;;;;;;;6.67;4.93;;;;;;;;;;759458;184;920817;-66
2023/07/28 10:07:35;;;;;;;6.50;4.80;;;;;;;;;;753494;183;816585;-67
2023/07/28 10:10:01;;;;;;;6.53;4.60;;;;;;;;;;755570;183;822359;-61
2023/07/28 10:12:27;;;;;;;6.00;5.03;;;;;;;;;;760451;183;913228;-60
2023/07/28 10:14:59;;;;;;;6.10;5.10;;;;;;;;;;757155;184;919354;-61
2023/07/28 10:17:25;;;;;;;5.90;4.53;;;;;;;;;;749028;184;918146;-61
2023/07/28 10:19:50;;;;;;;8.33;4.80;;;;;;;;;;753921;183;921109;-61
2023/07/28 10:22:16;;;;;;;5.30;4.60;;;;;;;;;;762621;184;918638;-60
2023/07/28 10:24:48;;;;;;;5.63;4.37;;;;;;;;;;752368;183;918981;-68
2023/07/28 10:27:14;;;;;;;6.60;4.70;;;;;;;;;;753767;183;914665;-66
2023/07/28 10:29:40;;;;;;;5.93;4.43;;;;;;;;;;759295;183;918745;-67
2023/07/28 10:32:06;;;;;;;6.40;4.73;;;;;;;;;;756688;183;918606;-66
2023/07/28 10:34:32;;;;;;;7.20;4.40;;;;;;;;;;758993;183;856624;-67
2023/07/28 10:36:58;;;;;;;6.50;4.17;;;;;;;;;;752910;183;722987;-60
2023/07/28 10:39:25;;;;;;;5.17;3.60;;;;;;;;;;758576;184;914246;-67
2023/07/28 10:42:01;;;;;;;4.23;3.33;;;;;;;;;;757405;184;919439;-67
2023/07/28 10:44:26;;;;;;;5.00;3.50;;;;;;;;;;759196;183;915513;-67
2023/07/28 10:46:52;;;;;;;5.33;3.43;;;;;;;;;;756660;183;918220;-67
2023/07/28 10:49:18;;;;;;;4.17;3.13;;;;;;;;;;751991;180;818962;-61
2023/07/28 10:51:44;;;;;;;5.10;3.70;;;;;;;;;;752947;184;918125;-68
2023/07/28 10:54:10;;;;;;;8.57;3.95;;;;;;;;;;756708;183;915781;-61
2023/07/28 10:56:36;;;;;;;4.70;3.50;;;;;;;;;;762823;183;915816;-69
2023/07/28 10:59:02;;;;;;;5.93;3.70;;;;;;;;;;759088;183;916038;-62
2023/07/28 11:01:32;;;;;;;3.90;3.10;;;;;;;;;;759674;183;918191;-62
2023/07/28 11:03:56;;;;;;;4.80;3.10;;;;;;;;;;760687;184;920205;-68
2023/07/28 11:06:22;;;;;;;5.63;3.50;;;;;;;;;;756894;183;921165;-61
2023/07/28 11:08:48;;;;;;;4.83;2.77;;;;;;;;;;744015;184;2038264;-64
2023/07/28 11:11:14;;;;;;;5.77;2.90;;;;;;;;;;754281;184;917058;-62
2023/07/28 11:13:40;;;;;;;5.80;2.90;;;;;;;;;;762509;183;903525;-68
2023/07/28 11:16:06;;;;;;;4.77;3.00;;;;;;;;;;756770;184;824444;-61
2023/07/28 11:18:32;;;;;;;3.97;2.75;;;;;;;;;;752352;184;914110;-61
2023/07/28 11:20:57;;;;;;;4.80;3.30;;;;;;;;;;764729;183;808093;-67
2023/07/28 11:23:23;;;;;;;5.70;2.97;;;;;;;;;;756255;183;918907;-61
2023/07/28 11:25:50;;;;;;;5.97;3.08;;;;;;;;;;755018;183;946450;-66
2023/07/28 11:28:15;;;;;;;6.77;3.60;;;;;;;;;;757679;184;916228;-68
2023/07/28 11:30:42;;;;;;;6.00;3.07;;;;;;;;;;755669;183;920975;-60
2023/07/28 11:33:07;;;;;;;4.70;3.03;;;;;;;;;;744977;183;918931;-61
2023/07/28 11:35:32;;;;;;;4.97;3.00;;;;;;;;;;752150;183;917244;-62
2023/07/28 11:37:58;;;;;;;6.27;3.20;;;;;;;;;;752929;184;919539;-62
2023/07/28 11:40:25;;;;;;;4.83;2.97;;;;;;;;;;755143;184;919008;-61
2023/07/28 11:42:50;;;;;;;4.67;2.90;;;;;;;;;;746861;184;910786;-61
2023/07/28 11:45:16;;;;;;;4.13;2.57;;;;;;;;;;754375;185;919433;-68
2023/07/28 11:47:47;;;;;;;3.40;2.30;;;;;;;;;;759327;183;910587;-60
2023/07/28 11:50:13;;;;;;;4.55;2.72;;;;;;;;;;751641;183;921710;-62
2023/07/28 11:52:40;;;;;;;3.95;2.60;;;;;;;;;;756346;184;921124;-62
2023/07/28 11:55:06;;;;;;;4.67;2.57;;;;;;;;;;756186;184;916654;-61
2023/07/28 11:57:32;;;;;;;4.97;3.10;;;;;;;;;;758674;183;917970;-69
2023/07/28 11:59:58;;;;;;;6.33;2.87;;;;;;;;;;755923;183;915706;-68
2023/07/28 12:02:26;;;;;;;7.40;2.90;;;;;;;;;;757724;183;876995;-68
2023/07/28 12:04:54;;;;;;;4.63;2.10;;;;;;;;;;753008;183;922619;-62
2023/07/28 12:07:18;;;;;;;5.15;2.50;;;;;;;;;;749876;184;861737;-62
2023/07/28 12:09:49;;;;;;;5.40;2.10;;;;;;;;;;764363;182;918128;-69
2023/07/28 12:12:15;;;;;;;3.77;2.40;;;;;;;;;;756629;184;889485;-68
2023/07/28 12:14:41;;;;;;;4.30;2.23;;;;;;;;;;751682;184;919175;-61
2023/07/28 12:17:13;;;;;;;3.40;2.50;;;;;;;;;;752961;183;921290;-62
2023/07/28 12:19:43;;;;;;;3.33;1.90;;;;;;;;;;763132;184;882801;-68
2023/07/28 12:22:08;;;;;;;5.00;2.50;;;;;;;;;;749452;184;919285;-62
2023/07/28 12:24:34;;;;;;;3.13;2.10;;;;;;;;;;753960;183;915367;-63
2023/07/28 12:27:00;;;;;;;5.37;2.00;;;;;;;;;;755384;183;916727;-62
2023/07/28 12:29:26;;;;;;;3.20;2.30;;;;;;;;;;761722;183;915538;-69
2023/07/28 12:31:52;;;;;;;4.77;3.17;;;;;;;;;;756614;184;918684;-62
2023/07/28 12:34:17;;;;;;;3.83;3.00;;;;;;;;;;755083;183;914974;-62
2023/07/28 12:36:44;;;;;;;5.60;2.87;;;;;;;;;;757343;183;916373;-62
2023/07/28 12:39:09;;;;;;;5.47;3.03;;;;;;;;;;754391;183;916393;-66
2023/07/28 12:41:35;;;;;;;3.92;2.90;;;;;;;;;;757011;184;817748;-63
2023/07/28 12:44:01;;;;;;;3.80;2.73;;;;;;;;;;754930;183;918714;-62
2023/07/28 12:46:27;;;;;;;5.20;2.80;;;;;;;;;;752918;184;920624;-69
2023/07/28 12:48:53;;;;;;;4.90;2.70;;;;;;;;;;754636;183;915998;-63
2023/07/28 12:51:18;;;;;;;6.00;3.30;;;;;;;;;;755193;183;916806;-62
2023/07/28 12:53:44;;;;;;;5.30;3.47;;;;;;;;;;758580;183;918401;-68
2023/07/28 12:56:10;;;;;;;7.50;2.90;;;;;;;;;;754902;183;920656;-69
2023/07/28 12:58:36;;;;;;;4.18;2.70;;;;;;;;;;751191;182;920274;-63
2023/07/28 13:01:04;;;;;;;8.77;3.70;;;;;;;;;;759770;183;918237;-62
2023/07/28 13:03:28;;;;;;;4.93;3.40;;;;;;;;;;760016;182;916711;-61
2023/07/28 13:05:53;;;;;;;4.25;3.15;;;;;;;;;;753754;183;921453;-62
2023/07/28 13:08:19;;;;;;;5.40;3.67;;;;;;;;;;755698;182;817454;-61
2023/07/28 13:10:45;;;;;;;4.27;3.13;;;;;;;;;;759104;183;815593;-61
2023/07/28 13:13:11;;;;;;;9.53;3.43;;;;;;;;;;759364;182;816699;-62
2023/07/28 13:15:37;;;;;;;9.47;3.20;;;;;;;;;;755659;182;923370;-61
2023/07/28 13:18:03;;;;;;;7.67;3.73;;;;;;;;;;749225;183;919538;-67
2023/07/28 13:20:28;;;;;;;7.37;3.53;;;;;;;;;;749526;182;910804;-60
2023/07/28 13:22:55;;;;;;;4.57;2.10;;;;;;;;;;755165;182;916211;-66
2023/07/28 13:25:21;;;;;;;5.77;2.50;;;;;;;;;;758870;183;816265;-67
2023/07/28 13:27:47;;;;;;;4.00;2.10;;;;;;;;;;753805;183;918035;-65
2023/07/28 13:30:13;;;;;;;5.60;2.40;;;;;;;;;;752506;183;917933;-66
2023/07/28 13:32:38;;;;;;;5.13;2.37;;;;;;;;;;760253;183;918002;-60
2023/07/28 13:35:05;;;;;;;3.33;2.40;;;;;;;;;;752645;183;917566;-60
2023/07/28 13:37:31;;;;;;;5.20;2.03;;;;;;;;;;755759;183;921562;-66
2023/07/28 13:39:57;;;;;;;3.20;2.00;;;;;;;;;;758164;183;918125;-65
2023/07/28 13:42:23;;;;;;;3.83;2.13;;;;;;;;;;755573;183;922393;-66
2023/07/28 13:44:49;;;;;;;5.30;2.03;;;;;;;;;;747028;184;912375;-60
2023/07/28 13:47:15;;;;;;;3.37;1.90;;;;;;;;;;753514;183;920265;-66
2023/07/28 13:49:40;;;;;;;3.97;2.60;;;;;;;;;;758341;183;917794;-59
2023/07/28 13:52:06;;;;;;;4.13;2.50;;;;;;;;;;758261;184;913065;-66
2023/07/28 13:54:32;;;;;;;5.10;2.37;;;;;;;;;;751206;184;918180;-60
2023/07/28 13:56:58;;;;;;;4.43;2.63;;;;;;;;;;756786;183;913931;-61
2023/07/28 13:59:25;;;;;;;2.90;1.70;;;;;;;;;;754226;184;915979;-68
2023/07/28 14:01:50;;;;;;;4.00;2.20;;;;;;;;;;760193;183;629434;-60
2023/07/28 14:04:16;;;;;;;6.77;2.20;;;;;;;;;;758567;183;618552;-61
2023/07/28 14:06:42;;;;;;;4.10;2.03;;;;;;;;;;756599;180;618987;-60
2023/07/28 14:09:09;;;;;;;4.43;2.27;;;;;;;;;;760037;183;619775;-60
2023/07/28 14:11:34;;;;;;;4.00;2.33;;;;;;;;;;757398;184;621573;-61
2023/07/28 14:14:00;;;;;;;3.97;2.00;;;;;;;;;;763312;183;814251;-67
2023/07/28 14:16:26;;;;;;;4.50;2.33;;;;;;;;;;752963;183;917322;-66
2023/07/28 14:18:51;;;;;;;7.33;2.53;;;;;;;;;;758013;183;838102;-67
2023/07/28 14:21:17;;;;;;;3.23;2.30;;;;;;;;;;762222;183;819467;-66